createdAt,value
2018-07-13T00:01:08.627Z,21.05
2018-07-13T00:03:37.390Z,20.99
2018-07-13T00:06:06.178Z,20.90
2018-07-13T00:08:34.938Z,20.85
2018-07-13T00:11:03.622Z,20.73
2018-07-13T00:13:33.890Z,20.75
2018-07-13T00:16:03.986Z,20.68
2018-07-13T00:18:32.674Z,20.66
2018-07-13T00:21:01.487Z,20.56
2018-07-13T00:23:30.241Z,20.50
2018-07-13T00:25:59.039Z,20.47
2018-07-13T00:28:27.688Z,20.50
2018-07-13T00:30:56.379Z,20.50
2018-07-13T00:33:25.112Z,20.44
2018-07-13T00:35:53.830Z,20.32
2018-07-13T00:38:22.577Z,20.36
2018-07-13T00:40:51.277Z,20.25
2018-07-13T00:43:20.035Z,20.23
2018-07-13T00:45:48.748Z,20.16
2018-07-13T00:48:17.484Z,20.10
2018-07-13T00:50:46.227Z,20.08
2018-07-13T00:53:14.891Z,20.07
2018-07-13T00:55:43.722Z,20.16
2018-07-13T00:58:12.439Z,20.11
2018-07-13T01:00:41.170Z,20.00
2018-07-13T01:03:09.951Z,20.09
2018-07-13T01:05:38.626Z,19.99
2018-07-13T01:08:07.363Z,19.86
2018-07-13T01:10:36.096Z,19.86
2018-07-13T01:13:04.779Z,19.81
2018-07-13T01:15:33.501Z,19.76
2018-07-13T01:18:02.318Z,19.67
2018-07-13T01:20:31.183Z,19.57
2018-07-13T01:22:59.858Z,19.59
2018-07-13T01:25:28.549Z,19.53
2018-07-13T01:27:57.276Z,19.49
2018-07-13T01:30:26.003Z,19.47
2018-07-13T01:32:54.706Z,19.46
2018-07-13T01:35:23.374Z,19.47
2018-07-13T01:37:52.180Z,19.53
2018-07-13T01:40:20.886Z,19.48
2018-07-13T01:42:49.815Z,19.50
2018-07-13T01:45:18.569Z,19.49
2018-07-13T01:47:47.271Z,19.46
2018-07-13T01:50:16.077Z,19.44
2018-07-13T01:52:45.062Z,19.42
2018-07-13T01:55:13.787Z,19.36
2018-07-13T01:57:42.582Z,19.34
2018-07-13T02:00:11.361Z,19.29
2018-07-13T02:02:40.092Z,19.22
2018-07-13T02:05:08.780Z,19.16
2018-07-13T02:07:37.483Z,19.14
2018-07-13T02:10:06.245Z,19.10
2018-07-13T02:12:34.983Z,19.07
2018-07-13T02:15:03.706Z,19.05
2018-07-13T02:17:32.411Z,19.05
2018-07-13T02:20:01.281Z,18.99
2018-07-13T02:22:29.947Z,18.96
2018-07-13T02:24:58.673Z,19.02
2018-07-13T02:27:27.381Z,19.01
2018-07-13T02:29:56.066Z,18.97
2018-07-13T02:32:24.739Z,18.91
2018-07-13T02:37:21.075Z,18.91
2018-07-13T02:39:49.747Z,18.92
2018-07-13T02:42:18.431Z,18.95
2018-07-13T02:44:47.178Z,19.00
2018-07-13T02:47:16.114Z,19.06
2018-07-13T02:49:44.819Z,18.99
2018-07-13T02:52:13.466Z,19.03
2018-07-13T02:54:42.227Z,19.00
2018-07-13T02:57:10.975Z,18.95
2018-07-13T02:59:39.687Z,18.85
2018-07-13T03:02:08.355Z,18.87
2018-07-13T03:04:37.088Z,18.89
2018-07-13T03:07:05.830Z,18.86
2018-07-13T03:09:35.222Z,18.86
2018-07-13T03:12:03.916Z,18.94
2018-07-13T03:14:32.651Z,18.87
2018-07-13T03:17:01.415Z,18.85
2018-07-13T03:19:31.447Z,18.85
2018-07-13T03:22:00.725Z,18.81
2018-07-13T03:24:31.539Z,18.83
2018-07-13T03:27:01.010Z,18.86
2018-07-13T03:29:31.938Z,18.80
2018-07-13T03:32:00.638Z,18.77
2018-07-13T03:34:29.315Z,18.69
2018-07-13T03:36:57.977Z,18.67
2018-07-13T03:39:26.697Z,18.74
2018-07-13T03:41:55.419Z,18.71
2018-07-13T03:44:24.089Z,18.70
2018-07-13T03:46:52.808Z,18.74
2018-07-13T03:49:21.513Z,18.74
2018-07-13T03:51:50.228Z,18.77
2018-07-13T03:54:20.189Z,18.77
2018-07-13T03:56:48.954Z,18.80
2018-07-13T03:59:17.793Z,18.82
2018-07-13T04:01:46.503Z,18.80
2018-07-13T04:04:15.226Z,18.88
2018-07-13T04:06:43.969Z,18.91
2018-07-13T04:09:12.788Z,18.93
2018-07-13T04:11:41.594Z,18.97
2018-07-13T04:14:11.148Z,19.04
2018-07-13T04:16:40.062Z,19.08
2018-07-13T04:19:08.752Z,19.13
2018-07-13T04:21:37.600Z,19.17
2018-07-13T04:24:06.574Z,19.15
2018-07-13T04:26:36.176Z,19.22
2018-07-13T04:29:05.302Z,19.27
2018-07-13T04:31:34.082Z,19.39
2018-07-13T04:34:02.894Z,19.45
2018-07-13T04:36:31.623Z,19.56
2018-07-13T04:39:00.331Z,19.62
2018-07-13T04:41:29.136Z,19.71
2018-07-13T04:43:57.974Z,19.79
2018-07-13T04:46:26.871Z,19.90
2018-07-13T04:48:55.584Z,19.98
2018-07-13T04:51:24.401Z,20.07
2018-07-13T04:53:53.174Z,20.15
2018-07-13T04:56:22.238Z,20.19
2018-07-13T04:58:51.366Z,20.20
2018-07-13T05:01:20.156Z,20.25
2018-07-13T05:03:48.958Z,20.32
2018-07-13T05:06:17.936Z,20.37
2018-07-13T05:08:46.738Z,20.36
2018-07-13T05:11:15.507Z,20.47
2018-07-13T05:13:44.294Z,20.49
2018-07-13T05:16:13.174Z,20.52
2018-07-13T05:18:41.895Z,20.53
2018-07-13T05:21:10.699Z,20.56
2018-07-13T05:23:39.545Z,20.63
2018-07-13T05:26:08.914Z,20.68
2018-07-13T05:28:37.710Z,20.66
2018-07-13T05:31:06.476Z,20.77
2018-07-13T05:33:35.338Z,20.78
2018-07-13T05:36:04.236Z,20.87
2018-07-13T05:38:33.943Z,21.07
2018-07-13T05:41:02.828Z,21.17
2018-07-13T05:43:31.694Z,21.29
2018-07-13T05:46:00.497Z,21.34
2018-07-13T05:48:30.148Z,21.32
2018-07-13T05:50:58.949Z,21.43
2018-07-13T05:53:27.850Z,21.43
2018-07-13T05:55:56.646Z,21.44
2018-07-13T05:58:25.477Z,21.46
2018-07-13T06:00:54.307Z,21.44
2018-07-13T06:03:23.146Z,21.25
2018-07-13T06:05:52.030Z,21.17
2018-07-13T06:08:20.858Z,21.18
2018-07-13T06:10:49.663Z,21.29
2018-07-13T06:13:18.539Z,21.45
2018-07-13T06:15:47.378Z,21.50
2018-07-13T06:18:16.220Z,21.60
2018-07-13T06:20:45.064Z,21.77
2018-07-13T06:23:13.757Z,21.85
2018-07-13T06:25:42.502Z,22.00
2018-07-13T06:28:11.317Z,22.09
2018-07-13T06:30:40.146Z,21.98
2018-07-13T06:33:09.164Z,22.05
2018-07-13T06:35:44.701Z,22.01
2018-07-13T06:38:13.484Z,22.16
2018-07-13T06:40:42.330Z,22.17
2018-07-13T06:43:11.103Z,22.10
2018-07-13T06:45:41.331Z,22.09
2018-07-13T06:48:10.842Z,22.19
2018-07-13T06:50:39.733Z,22.22
2018-07-13T06:53:09.881Z,22.17
2018-07-13T06:55:38.657Z,22.23
2018-07-13T06:58:18.495Z,22.42
2018-07-13T07:01:04.906Z,22.62
2018-07-13T07:03:37.215Z,22.63
2018-07-13T07:06:10.781Z,22.78
2018-07-13T07:08:41.176Z,22.96
2018-07-13T07:11:10.110Z,23.05
2018-07-13T07:13:40.190Z,23.16
2018-07-13T07:16:08.982Z,23.15
2018-07-13T07:18:37.847Z,23.14
2018-07-13T07:21:06.831Z,23.25
2018-07-13T07:23:36.108Z,23.30
2018-07-13T07:26:05.481Z,23.20
2018-07-13T07:28:34.323Z,23.27
2018-07-13T07:31:04.012Z,23.29
2018-07-13T07:33:32.812Z,23.40
2018-07-13T07:36:01.572Z,23.54
2018-07-13T07:38:30.365Z,23.65
2018-07-13T07:40:59.202Z,23.84
2018-07-13T07:43:28.005Z,23.90
2018-07-13T07:45:56.751Z,23.84
2018-07-13T07:48:25.558Z,23.99
2018-07-13T07:50:54.249Z,24.07
2018-07-13T07:53:22.990Z,24.19
2018-07-13T07:55:51.678Z,24.29
2018-07-13T07:58:20.424Z,24.48
2018-07-13T08:00:49.175Z,24.58
2018-07-13T08:03:17.920Z,24.76
2018-07-13T08:05:46.889Z,24.97
2018-07-13T08:08:15.636Z,25.19
2018-07-13T08:10:44.339Z,25.26
2018-07-13T08:13:13.075Z,25.12
2018-07-13T08:15:41.897Z,24.79
2018-07-13T08:18:10.677Z,24.76
2018-07-13T08:20:44.536Z,24.85
2018-07-13T08:23:13.456Z,24.72
2018-07-13T08:25:44.551Z,24.62
2018-07-13T08:28:13.461Z,24.60
2018-07-13T08:30:44.641Z,24.74
2018-07-13T08:33:13.344Z,24.98
2018-07-13T08:35:42.086Z,25.07
2018-07-13T08:38:10.849Z,25.17
2018-07-13T08:40:39.680Z,25.21
2018-07-13T08:43:08.503Z,25.26
2018-07-13T08:45:37.394Z,25.55
2018-07-13T08:48:06.208Z,25.90
2018-07-13T08:50:35.099Z,26.07
2018-07-13T08:53:03.998Z,26.29
2018-07-13T08:55:32.889Z,26.47
2018-07-13T08:58:02.043Z,26.57
2018-07-13T09:00:30.831Z,26.67
2018-07-13T09:02:59.619Z,26.88
2018-07-13T09:05:28.449Z,26.95
2018-07-13T09:07:57.681Z,26.91
2018-07-13T09:10:26.489Z,26.86
2018-07-13T09:12:55.334Z,26.78
2018-07-13T09:15:24.113Z,26.88
2018-07-13T09:17:52.917Z,27.02
2018-07-13T09:20:21.848Z,27.11
2018-07-13T09:22:50.637Z,27.41
2018-07-13T09:25:19.418Z,27.42
2018-07-13T09:27:48.147Z,27.54
2018-07-13T09:30:16.902Z,27.79
2018-07-13T09:32:45.700Z,27.81
2018-07-13T09:35:14.512Z,28.01
2018-07-13T09:37:43.325Z,27.76
2018-07-13T09:40:12.086Z,27.54
2018-07-13T09:42:40.866Z,27.33
2018-07-13T09:45:09.926Z,27.48
2018-07-13T09:47:38.774Z,27.43
2018-07-13T09:50:07.574Z,27.43
2018-07-13T09:52:36.315Z,27.25
2018-07-13T09:55:05.215Z,27.24
2018-07-13T09:57:33.974Z,27.14
2018-07-13T10:00:02.724Z,27.16
2018-07-13T10:02:31.540Z,27.31
2018-07-13T10:05:00.390Z,27.42
2018-07-13T10:07:29.260Z,27.86
2018-07-13T10:09:58.078Z,27.59
2018-07-13T10:12:26.929Z,27.51
2018-07-13T10:14:55.714Z,27.40
2018-07-13T10:17:24.560Z,27.49
2018-07-13T10:19:53.387Z,27.78
2018-07-13T10:22:27.055Z,28.16
2018-07-13T10:24:57.644Z,28.49
2018-07-13T10:27:30.060Z,28.65
2018-07-13T10:29:59.268Z,28.93
2018-07-13T10:32:28.090Z,29.01
2018-07-13T10:34:56.861Z,29.09
2018-07-13T10:37:27.401Z,28.53
2018-07-13T10:39:56.236Z,28.02
2018-07-13T10:42:25.818Z,28.18
2018-07-13T10:44:54.591Z,28.05
2018-07-13T10:47:23.620Z,28.02
2018-07-13T10:49:52.358Z,28.10
2018-07-13T10:52:21.172Z,28.42
2018-07-13T10:54:49.932Z,28.29
2018-07-13T10:57:18.714Z,28.39
2018-07-13T10:59:47.486Z,28.19
2018-07-13T11:02:16.279Z,28.20
2018-07-13T11:04:45.699Z,28.14
2018-07-13T11:07:14.408Z,28.23
2018-07-13T11:09:46.080Z,28.43
2018-07-13T11:12:14.856Z,28.83
2018-07-13T11:14:43.647Z,29.14
2018-07-13T11:17:13.122Z,29.70
2018-07-13T11:19:41.939Z,29.93
2018-07-13T11:22:10.695Z,29.43
2018-07-13T11:24:39.415Z,29.45
2018-07-13T11:27:08.227Z,29.88
2018-07-13T11:29:37.064Z,30.02
2018-07-13T11:32:05.964Z,29.97
2018-07-13T11:34:34.750Z,30.26
2018-07-13T11:37:03.608Z,29.37
2018-07-13T11:39:32.237Z,28.69
2018-07-13T11:42:00.959Z,28.44
2018-07-13T11:44:29.713Z,28.04
2018-07-13T11:46:58.503Z,27.57
2018-07-13T11:49:27.258Z,27.43
2018-07-13T11:51:56.080Z,27.22
2018-07-13T11:54:24.797Z,27.54
2018-07-13T11:56:53.540Z,28.40
2018-07-13T11:59:22.285Z,29.05
2018-07-13T12:01:51.714Z,29.62
2018-07-13T12:04:20.404Z,30.03
2018-07-13T12:06:49.215Z,30.38
2018-07-13T12:09:17.929Z,30.84
2018-07-13T12:11:46.691Z,31.20
2018-07-13T12:14:15.381Z,31.24
2018-07-13T12:16:44.204Z,31.12
2018-07-13T12:19:12.935Z,31.34
2018-07-13T12:21:41.654Z,31.59
2018-07-13T12:24:10.346Z,31.45
2018-07-13T12:26:39.144Z,31.76
2018-07-13T12:29:07.870Z,31.93
2018-07-13T12:31:36.886Z,32.19
2018-07-13T12:34:05.632Z,32.50
2018-07-13T12:36:34.334Z,32.62
2018-07-13T12:39:03.164Z,32.70
2018-07-13T12:41:31.919Z,32.01
2018-07-13T12:44:00.639Z,31.88
2018-07-13T12:46:29.412Z,31.34
2018-07-13T12:48:58.121Z,30.39
2018-07-13T12:51:26.936Z,29.83
2018-07-13T12:53:55.778Z,29.34
2018-07-13T12:56:24.652Z,29.06
2018-07-13T12:58:53.459Z,28.96
2018-07-13T13:01:22.245Z,29.54
2018-07-13T13:03:50.935Z,29.78
2018-07-13T13:06:19.721Z,29.84
2018-07-13T13:08:48.390Z,29.93
2018-07-13T13:11:17.420Z,30.75
2018-07-13T13:13:46.460Z,31.04
2018-07-13T13:16:15.172Z,31.40
2018-07-13T13:18:43.903Z,31.34
2018-07-13T13:21:12.624Z,31.21
2018-07-13T13:23:41.392Z,31.33
2018-07-13T13:26:10.113Z,31.31
2018-07-13T13:28:38.803Z,31.75
2018-07-13T13:31:07.578Z,32.38
2018-07-13T13:33:36.329Z,32.21
2018-07-13T13:36:05.096Z,31.83
2018-07-13T13:38:33.867Z,31.32
2018-07-13T13:41:02.651Z,30.52
2018-07-13T13:43:31.350Z,31.00
2018-07-13T13:46:00.123Z,30.91
2018-07-13T13:48:28.822Z,30.51
2018-07-13T13:50:57.505Z,30.13
2018-07-13T13:53:26.322Z,29.65
2018-07-13T13:55:55.044Z,29.25
2018-07-13T13:58:23.788Z,29.05
2018-07-13T14:00:52.519Z,28.60
2018-07-13T14:03:21.324Z,28.69
2018-07-13T14:05:50.099Z,28.69
2018-07-13T14:08:19.101Z,28.57
2018-07-13T14:10:47.934Z,28.33
2018-07-13T14:13:16.646Z,28.58
2018-07-13T14:15:45.457Z,28.90
2018-07-13T14:18:14.192Z,28.92
2018-07-13T14:20:42.942Z,28.26
2018-07-13T14:23:11.672Z,27.55
2018-07-13T14:25:40.452Z,27.23
2018-07-13T14:28:09.265Z,27.50
2018-07-13T14:30:37.984Z,28.21
2018-07-13T14:33:06.790Z,28.73
2018-07-13T14:35:35.448Z,28.78
2018-07-13T14:38:09.133Z,28.53
2018-07-13T14:40:37.974Z,28.36
2018-07-13T14:43:06.872Z,28.10
2018-07-13T14:45:35.695Z,27.69
2018-07-13T14:48:04.480Z,27.27
2018-07-13T14:50:33.254Z,27.54
2018-07-13T14:53:01.998Z,27.52
2018-07-13T14:55:30.725Z,27.40
2018-07-13T14:57:59.836Z,27.46
2018-07-13T15:00:28.641Z,27.29
2018-07-13T15:02:57.499Z,27.24
2018-07-13T15:05:26.330Z,27.33
2018-07-13T15:07:57.867Z,27.05
2018-07-13T15:10:26.766Z,27.71
2018-07-13T15:12:55.459Z,28.36
2018-07-13T15:15:24.279Z,29.03
2018-07-13T15:17:53.047Z,29.67
2018-07-13T15:20:21.753Z,30.05
2018-07-13T15:22:50.442Z,30.61
2018-07-13T15:25:19.168Z,31.03
2018-07-13T15:27:47.903Z,31.13
2018-07-13T15:30:17.960Z,30.95
2018-07-13T15:32:46.690Z,31.04
2018-07-13T15:35:15.442Z,31.21
2018-07-13T15:37:44.190Z,31.47
2018-07-13T15:40:12.913Z,31.58
2018-07-13T15:42:41.636Z,32.03
2018-07-13T15:45:10.422Z,31.81
2018-07-13T15:47:39.143Z,31.55
2018-07-13T15:50:08.049Z,31.92
2018-07-13T15:52:36.790Z,31.73
2018-07-13T15:55:06.468Z,31.45
2018-07-13T15:57:35.172Z,31.46
2018-07-13T16:00:05.860Z,31.16
2018-07-13T16:02:34.604Z,31.03
2018-07-13T16:05:03.461Z,31.34
2018-07-13T16:07:32.313Z,31.30
2018-07-13T16:10:01.040Z,31.45
2018-07-13T16:12:29.901Z,31.08
2018-07-13T16:14:58.684Z,30.91
2018-07-13T16:17:27.443Z,30.92
2018-07-13T16:19:57.094Z,30.87
2018-07-13T16:22:25.860Z,30.88
2018-07-13T16:24:54.719Z,30.67
2018-07-13T16:27:23.465Z,30.57
2018-07-13T16:29:52.222Z,30.64
2018-07-13T16:32:20.985Z,29.99
2018-07-13T16:34:49.737Z,29.57
2018-07-13T16:37:18.475Z,28.99
2018-07-13T16:39:47.344Z,28.93
2018-07-13T16:42:16.113Z,29.07
2018-07-13T16:44:44.817Z,29.11
2018-07-13T16:47:13.654Z,29.12
2018-07-13T16:49:42.415Z,29.13
2018-07-13T16:52:11.091Z,29.08
2018-07-13T16:54:39.856Z,29.23
2018-07-13T16:57:09.224Z,28.89
2018-07-13T16:59:38.068Z,28.54
2018-07-13T17:02:06.851Z,28.19
2018-07-13T17:04:35.591Z,27.67
2018-07-13T17:07:04.553Z,27.35
2018-07-13T17:09:33.287Z,27.08
2018-07-13T17:12:02.103Z,26.73
2018-07-13T17:14:30.935Z,26.56
2018-07-13T17:16:59.746Z,26.57
2018-07-13T17:19:28.608Z,26.47
2018-07-13T17:21:57.534Z,26.49
2018-07-13T17:24:26.217Z,26.60
2018-07-13T17:26:54.980Z,26.47
2018-07-13T17:29:23.715Z,26.63
2018-07-13T17:31:52.420Z,26.47
2018-07-13T17:34:21.260Z,26.26
2018-07-13T17:36:49.977Z,26.10
2018-07-13T17:39:18.672Z,26.05
2018-07-13T17:41:47.771Z,25.92
2018-07-13T17:44:16.844Z,25.82
2018-07-13T17:46:48.238Z,25.78
2018-07-13T17:49:17.277Z,25.64
2018-07-13T17:51:47.027Z,25.55
2018-07-13T17:54:18.610Z,25.47
2018-07-13T17:56:47.497Z,25.44
2018-07-13T17:59:16.187Z,25.32
2018-07-13T18:01:44.912Z,25.18
2018-07-13T18:04:13.747Z,25.27
2018-07-13T18:06:42.466Z,25.22
2018-07-13T18:09:11.217Z,25.12
2018-07-13T18:11:40.020Z,25.09
2018-07-13T18:14:09.039Z,25.10
2018-07-13T18:16:37.763Z,25.10
2018-07-13T18:19:06.630Z,25.08
2018-07-13T18:21:35.486Z,25.18
2018-07-13T18:24:04.237Z,25.21
2018-07-13T18:26:33.084Z,25.09
2018-07-13T18:29:01.840Z,25.08
2018-07-13T18:31:30.696Z,25.05
2018-07-13T18:33:59.446Z,24.97
2018-07-13T18:36:28.485Z,24.92
2018-07-13T18:39:02.195Z,24.81
2018-07-13T18:41:31.969Z,24.83
2018-07-13T18:44:00.742Z,24.68
2018-07-13T18:46:29.488Z,24.58
2018-07-13T18:48:58.375Z,24.40
2018-07-13T18:51:27.160Z,24.43
2018-07-13T18:53:55.861Z,24.28
2018-07-13T18:56:25.349Z,24.38
2018-07-13T18:58:54.110Z,24.31
2018-07-13T19:01:22.885Z,24.34
2018-07-13T19:03:51.670Z,24.40
2018-07-13T19:06:20.514Z,24.47
2018-07-13T19:08:49.533Z,24.45
2018-07-13T19:11:19.601Z,24.46
2018-07-13T19:13:48.395Z,24.43
2018-07-13T19:16:17.507Z,24.41
2018-07-13T19:18:46.725Z,24.36
2018-07-13T19:21:15.433Z,24.28
2018-07-13T19:23:44.138Z,24.23
2018-07-13T19:26:13.047Z,24.04
2018-07-13T19:28:41.828Z,24.05
2018-07-13T19:31:10.624Z,23.95
2018-07-13T19:33:39.616Z,23.82
2018-07-13T19:36:08.505Z,23.73
2018-07-13T19:38:37.248Z,23.62
2018-07-13T19:41:06.059Z,23.69
2018-07-13T19:43:34.909Z,23.64
2018-07-13T19:46:03.715Z,23.59
2018-07-13T19:48:33.078Z,23.49
2018-07-13T19:51:01.749Z,23.42
2018-07-13T19:53:30.559Z,23.35
2018-07-13T19:55:59.295Z,23.29
2018-07-13T19:58:28.012Z,23.25
2018-07-13T20:00:56.796Z,23.15
2018-07-13T20:03:25.858Z,23.11
2018-07-13T20:05:54.802Z,23.09
2018-07-13T20:08:23.574Z,23.16
2018-07-13T20:10:52.306Z,23.19
2018-07-13T20:13:21.220Z,23.15
2018-07-13T20:15:49.948Z,23.15
2018-07-13T20:18:20.370Z,23.18
2018-07-13T20:20:49.970Z,22.92
2018-07-13T20:23:18.876Z,22.94
2018-07-13T20:25:47.603Z,22.96
2018-07-13T20:28:16.326Z,22.85
2018-07-13T20:30:45.158Z,22.83
2018-07-13T20:33:13.870Z,22.74
2018-07-13T20:35:42.780Z,22.79
2018-07-13T20:38:11.507Z,22.77
2018-07-13T20:40:40.309Z,22.69
2018-07-13T20:43:09.030Z,22.63
2018-07-13T20:45:37.744Z,22.63
2018-07-13T20:48:06.501Z,22.48
2018-07-13T20:50:35.370Z,22.14
2018-07-13T20:53:04.077Z,22.02
2018-07-13T20:55:32.856Z,21.88
2018-07-13T20:58:01.552Z,21.74
2018-07-13T21:00:30.510Z,21.67
2018-07-13T21:02:59.263Z,21.73
2018-07-13T21:05:28.007Z,21.69
2018-07-13T21:07:56.769Z,21.80
2018-07-13T21:10:25.498Z,21.87
2018-07-13T21:12:54.166Z,21.77
2018-07-13T21:15:22.969Z,21.71
2018-07-13T21:17:51.758Z,21.80
2018-07-13T21:20:20.632Z,21.82
2018-07-13T21:22:49.188Z,21.82
2018-07-13T21:25:17.898Z,21.85
2018-07-13T21:27:46.634Z,21.67
2018-07-13T21:30:15.303Z,21.53
2018-07-13T21:32:44.112Z,21.48
2018-07-13T21:35:13.267Z,21.45
2018-07-13T21:37:42.071Z,21.48
2018-07-13T21:40:10.788Z,21.49
2018-07-13T21:42:39.545Z,21.59
2018-07-13T21:45:09.100Z,21.61
2018-07-13T21:47:37.838Z,21.54
2018-07-13T21:50:07.287Z,21.43
2018-07-13T21:52:36.107Z,21.34
2018-07-13T21:55:04.919Z,21.30
2018-07-13T21:57:33.641Z,21.18
2018-07-13T22:00:02.392Z,21.28
2018-07-13T22:02:31.201Z,21.34
2018-07-13T22:05:00.794Z,21.37
2018-07-13T22:07:29.756Z,21.34
2018-07-13T22:09:58.522Z,21.22
2018-07-13T22:12:27.262Z,20.98
2018-07-13T22:14:56.034Z,21.14
2018-07-13T22:17:24.801Z,20.95
2018-07-13T22:19:54.591Z,21.02
2018-07-13T22:22:23.637Z,20.86
2018-07-13T22:24:52.479Z,20.84
2018-07-13T22:27:21.257Z,20.80
2018-07-13T22:29:49.969Z,20.80
2018-07-13T22:32:18.685Z,20.73
2018-07-13T22:34:47.373Z,20.58
2018-07-13T22:37:16.077Z,20.60
2018-07-13T22:39:44.833Z,20.57
2018-07-13T22:42:13.626Z,20.56
2018-07-13T22:44:42.312Z,20.53
2018-07-13T22:47:11.037Z,20.50
2018-07-13T22:49:39.708Z,20.45
2018-07-13T22:52:08.489Z,20.49
2018-07-13T22:54:37.191Z,20.46
2018-07-13T22:57:06.253Z,20.49
2018-07-13T22:59:34.963Z,20.44
2018-07-13T23:02:03.763Z,20.42
2018-07-13T23:04:32.484Z,20.37
2018-07-13T23:07:01.384Z,20.42
2018-07-13T23:09:30.063Z,20.41
2018-07-13T23:11:58.757Z,20.40
2018-07-13T23:14:27.502Z,20.44
2018-07-13T23:16:56.167Z,20.47
2018-07-13T23:19:24.799Z,20.43
2018-07-13T23:21:53.485Z,20.34
2018-07-13T23:24:22.325Z,20.39
2018-07-13T23:26:51.013Z,20.29
2018-07-13T23:29:19.755Z,20.25
2018-07-13T23:31:48.464Z,20.25
2018-07-13T23:34:17.174Z,20.23
2018-07-13T23:36:45.831Z,20.29
2018-07-13T23:39:14.505Z,20.26
2018-07-13T23:41:43.211Z,20.23
2018-07-13T23:44:12.002Z,20.19
2018-07-13T23:46:40.750Z,20.25
2018-07-13T23:49:09.425Z,20.28
2018-07-13T23:51:38.095Z,20.25
2018-07-13T23:54:06.861Z,20.22
2018-07-13T23:56:35.556Z,20.29
2018-07-13T23:59:04.373Z,20.29
